Boa Vista の空港の天気 - METARとTAF

ボア・ヴィスタ国際空港 ( SBBV / BVB ) - ブラジル ロライマ州、Boa Vista
飛行場実況気象(Metar)
観測時間12/16 18:00 AMT (12/16 22:00 UTC)
風向・風速東 4m/s
視程10km以上
天気現象
少しの雲 雲底高度 910m
気温30℃
湿度49%
気圧1012hPa
METARSBBV 162200Z 08008KT 9999 FEW030 30/18 Q1012
過去の天気等 Google飛行場航空写真 Wunderground天気予報

過去48時間のMETAR

飛行場予報(TAF)
発表時間: 12/16 12:00 AMT (12/16 16:00 UTC)
予報対象時間: 16日14時 AMT ~ 17日14時 AMT
風向・風速東 7m/s
視程10km以上
全天の8割程度の雲 雲底高度 1220m
少しの塔状積雲 雲底高度 1370m
16日15時 AMT ~ 16日17時 AMT に徐々に
風向・風速東 4m/s
少しの雲 雲底高度 1220m
16日19時 AMT ~ 16日21時 AMT に徐々に
視程10km以上
なし
17日7時 AMT ~ 17日9時 AMT に徐々に
風向・風速東北東 8m/s
視程10km以上
全天の4割程度の雲 雲底高度 910m
17日11時 AMT ~ 17日13時 AMT に徐々に
風向・風速東南東 8m/s
全天の8割程度の雲 雲底高度 1220m
少しの塔状積雲 雲底高度 1370m
TAF SBBV 161600Z 1618/1718 09013KT 9999 BKN040 FEW045TCU TX33/1619Z T N24/1707Z
BECMG 1619/1621 10008KT FEW040
BECMG 1623/1701 CAVOK
BECMG 1711/1713 07016KT 9999 SCT030
BECMG 1715/1717 11015KT BKN040 FEW045TCU RMK PDY